Cemal, Russia
Current Conditions -  °F | °C
As of 7:30 AM on Wednesday 22 Oct 2014 (Local Time) from UNBB Reporting Station
Broken Clouds Broken Clouds  
Wind Chill: 21°   Ceiling: 4000
Heat Index: 30°   Visibility: 6mi
Dew Point: 19°   Wind: 11mph
Humidity: 64%   Direction: 210°SSW
Pressure: 30.21"   Gusts: NA
Location:  51.43°N, 86°E
Report Text: UNBB 220030Z 21005MPS 9999 BKN040 M01/M07 Q1023 NOSIG RMKQFE745/0993 24CLRD66
Loading
Personal Weather Stations






























Interactive Weather Map
Tropical Storm Tracking
New forecast layout! Learn more

10-Day Weather Forecast

Advertisements
Track Severe Weather on mobile